sensor_id;sensor_type;location;lat;lon;timestamp;temperature;humidity
40323;DHT22;26030;51.164;17.100;2023-07-30T00:02:51;25.90;59.10
40323;DHT22;26030;51.164;17.100;2023-07-30T00:07:55;25.90;58.40
40323;DHT22;26030;51.164;17.100;2023-07-30T00:12:59;25.90;58.30
40323;DHT22;26030;51.164;17.100;2023-07-30T00:18:03;25.90;58.20
40323;DHT22;26030;51.164;17.100;2023-07-30T00:23:08;25.80;58.40
40323;DHT22;26030;51.164;17.100;2023-07-30T00:28:12;25.80;58.00
40323;DHT22;26030;51.164;17.100;2023-07-30T00:33:17;25.90;58.00
40323;DHT22;26030;51.164;17.100;2023-07-30T00:38:21;25.80;57.90
40323;DHT22;26030;51.164;17.100;2023-07-30T00:43:25;25.80;58.20
40323;DHT22;26030;51.164;17.100;2023-07-30T00:48:30;25.80;58.20
40323;DHT22;26030;51.164;17.100;2023-07-30T00:53:34;25.80;57.80
40323;DHT22;26030;51.164;17.100;2023-07-30T00:58:40;25.80;57.80
40323;DHT22;26030;51.164;17.100;2023-07-30T01:03:46;25.80;57.80
40323;DHT22;26030;51.164;17.100;2023-07-30T01:08:51;25.70;57.60
40323;DHT22;26030;51.164;17.100;2023-07-30T01:13:55;25.70;57.60
40323;DHT22;26030;51.164;17.100;2023-07-30T01:19:01;25.70;57.60
40323;DHT22;26030;51.164;17.100;2023-07-30T01:24:08;25.70;57.60
40323;DHT22;26030;51.164;17.100;2023-07-30T01:29:22;25.70;57.50
40323;DHT22;26030;51.164;17.100;2023-07-30T01:34:37;25.70;57.50
40323;DHT22;26030;51.164;17.100;2023-07-30T01:39:43;25.70;57.40
40323;DHT22;26030;51.164;17.100;2023-07-30T01:44:49;25.70;57.50
40323;DHT22;26030;51.164;17.100;2023-07-30T01:49:53;25.70;57.70
40323;DHT22;26030;51.164;17.100;2023-07-30T01:54:58;25.60;57.30
40323;DHT22;26030;51.164;17.100;2023-07-30T02:00:05;25.60;57.30
40323;DHT22;26030;51.164;17.100;2023-07-30T02:05:09;25.60;57.20
40323;DHT22;26030;51.164;17.100;2023-07-30T02:10:14;25.60;57.30
40323;DHT22;26030;51.164;17.100;2023-07-30T02:15:19;25.60;57.20
40323;DHT22;26030;51.164;17.100;2023-07-30T02:20:26;25.60;57.30
40323;DHT22;26030;51.164;17.100;2023-07-30T02:25:31;25.50;57.10
40323;DHT22;26030;51.164;17.100;2023-07-30T02:30:38;25.60;57.10
40323;DHT22;26030;51.164;17.100;2023-07-30T02:35:43;25.60;57.70
40323;DHT22;26030;51.164;17.100;2023-07-30T02:40:47;25.50;57.10
40323;DHT22;26030;51.164;17.100;2023-07-30T02:45:52;25.50;57.40
40323;DHT22;26030;51.164;17.100;2023-07-30T02:50:56;25.50;57.10
40323;DHT22;26030;51.164;17.100;2023-07-30T02:56:01;25.50;57.20
40323;DHT22;26030;51.164;17.100;2023-07-30T03:01:06;25.50;57.10
40323;DHT22;26030;51.164;17.100;2023-07-30T03:06:11;25.40;56.90
40323;DHT22;26030;51.164;17.100;2023-07-30T03:11:16;25.40;57.00
40323;DHT22;26030;51.164;17.100;2023-07-30T03:16:20;25.40;57.00
40323;DHT22;26030;51.164;17.100;2023-07-30T03:21:25;25.40;57.00
40323;DHT22;26030;51.164;17.100;2023-07-30T03:26:29;25.40;57.40
40323;DHT22;26030;51.164;17.100;2023-07-30T03:31:33;25.40;57.10
40323;DHT22;26030;51.164;17.100;2023-07-30T03:36:38;25.40;57.20
40323;DHT22;26030;51.164;17.100;2023-07-30T03:41:43;25.30;57.30
40323;DHT22;26030;51.164;17.100;2023-07-30T03:46:48;25.30;57.20
40323;DHT22;26030;51.164;17.100;2023-07-30T03:51:52;25.30;57.20
40323;DHT22;26030;51.164;17.100;2023-07-30T03:57:04;25.30;57.10
40323;DHT22;26030;51.164;17.100;2023-07-30T04:02:08;25.30;57.70
40323;DHT22;26030;51.164;17.100;2023-07-30T04:07:13;25.30;57.30
40323;DHT22;26030;51.164;17.100;2023-07-30T04:12:17;25.20;57.60
40323;DHT22;26030;51.164;17.100;2023-07-30T04:17:24;25.30;57.30
40323;DHT22;26030;51.164;17.100;2023-07-30T04:22:28;25.30;57.40
40323;DHT22;26030;51.164;17.100;2023-07-30T04:27:32;25.20;57.70
40323;DHT22;26030;51.164;17.100;2023-07-30T04:32:37;25.20;57.30
40323;DHT22;26030;51.164;17.100;2023-07-30T04:37:42;25.20;57.30
40323;DHT22;26030;51.164;17.100;2023-07-30T04:42:46;25.30;57.30
40323;DHT22;26030;51.164;17.100;2023-07-30T04:47:50;25.20;57.30
40323;DHT22;26030;51.164;17.100;2023-07-30T04:52:55;25.30;57.70
40323;DHT22;26030;51.164;17.100;2023-07-30T04:57:59;25.30;57.20
40323;DHT22;26030;51.164;17.100;2023-07-30T05:03:03;25.30;57.20
40323;DHT22;26030;51.164;17.100;2023-07-30T05:08:08;25.30;57.40
40323;DHT22;26030;51.164;17.100;2023-07-30T05:13:12;25.30;57.20
40323;DHT22;26030;51.164;17.100;2023-07-30T05:18:16;25.40;57.40
40323;DHT22;26030;51.164;17.100;2023-07-30T05:23:21;25.40;57.50
40323;DHT22;26030;51.164;17.100;2023-07-30T05:28:26;25.40;57.40
40323;DHT22;26030;51.164;17.100;2023-07-30T05:33:30;25.40;57.10
40323;DHT22;26030;51.164;17.100;2023-07-30T05:38:34;25.40;57.30
40323;DHT22;26030;51.164;17.100;2023-07-30T05:43:38;25.40;57.20
40323;DHT22;26030;51.164;17.100;2023-07-30T05:48:43;25.40;57.30
40323;DHT22;26030;51.164;17.100;2023-07-30T05:53:47;25.40;58.10
40323;DHT22;26030;51.164;17.100;2023-07-30T05:58:51;25.40;57.80
40323;DHT22;26030;51.164;17.100;2023-07-30T06:03:56;25.40;57.60
40323;DHT22;26030;51.164;17.100;2023-07-30T06:09:00;25.40;57.50
40323;DHT22;26030;51.164;17.100;2023-07-30T06:14:04;25.40;58.00
40323;DHT22;26030;51.164;17.100;2023-07-30T06:19:08;25.40;57.80
40323;DHT22;26030;51.164;17.100;2023-07-30T06:24:12;25.40;58.30
40323;DHT22;26030;51.164;17.100;2023-07-30T06:29:17;25.40;58.00
40323;DHT22;26030;51.164;17.100;2023-07-30T06:34:21;25.40;58.10
40323;DHT22;26030;51.164;17.100;2023-07-30T06:39:28;25.40;58.20
40323;DHT22;26030;51.164;17.100;2023-07-30T06:44:32;25.50;57.90
40323;DHT22;26030;51.164;17.100;2023-07-30T06:49:37;25.50;58.80
40323;DHT22;26030;51.164;17.100;2023-07-30T06:54:41;25.50;58.30
40323;DHT22;26030;51.164;17.100;2023-07-30T06:59:45;25.50;58.00
40323;DHT22;26030;51.164;17.100;2023-07-30T07:04:50;25.50;58.30
40323;DHT22;26030;51.164;17.100;2023-07-30T07:09:54;25.50;58.50
40323;DHT22;26030;51.164;17.100;2023-07-30T07:14:58;25.50;59.10
40323;DHT22;26030;51.164;17.100;2023-07-30T07:20:05;25.50;59.20
40323;DHT22;26030;51.164;17.100;2023-07-30T07:25:10;25.50;59.60
40323;DHT22;26030;51.164;17.100;2023-07-30T07:30:15;25.50;59.40
40323;DHT22;26030;51.164;17.100;2023-07-30T07:35:20;25.50;59.20
40323;DHT22;26030;51.164;17.100;2023-07-30T07:40:24;25.60;58.90
40323;DHT22;26030;51.164;17.100;2023-07-30T07:45:29;25.60;58.80
40323;DHT22;26030;51.164;17.100;2023-07-30T07:50:36;25.60;58.60
40323;DHT22;26030;51.164;17.100;2023-07-30T07:55:42;25.70;58.70
40323;DHT22;26030;51.164;17.100;2023-07-30T08:00:46;25.60;59.10
40323;DHT22;26030;51.164;17.100;2023-07-30T08:05:51;25.60;59.00
40323;DHT22;26030;51.164;17.100;2023-07-30T08:10:55;25.70;58.80
40323;DHT22;26030;51.164;17.100;2023-07-30T08:16:02;25.70;58.50
40323;DHT22;26030;51.164;17.100;2023-07-30T08:21:07;25.70;58.40
40323;DHT22;26030;51.164;17.100;2023-07-30T08:26:11;25.80;58.50
40323;DHT22;26030;51.164;17.100;2023-07-30T08:31:15;25.80;58.80
40323;DHT22;26030;51.164;17.100;2023-07-30T08:36:20;25.80;58.70
40323;DHT22;26030;51.164;17.100;2023-07-30T08:41:26;25.80;58.40
40323;DHT22;26030;51.164;17.100;2023-07-30T08:46:30;25.80;58.50
40323;DHT22;26030;51.164;17.100;2023-07-30T08:51:35;25.90;58.40
40323;DHT22;26030;51.164;17.100;2023-07-30T08:56:42;25.90;58.40
40323;DHT22;26030;51.164;17.100;2023-07-30T09:01:46;25.90;58.40
40323;DHT22;26030;51.164;17.100;2023-07-30T09:06:54;25.90;58.50
40323;DHT22;26030;51.164;17.100;2023-07-30T09:11:58;25.90;58.30
40323;DHT22;26030;51.164;17.100;2023-07-30T09:17:04;25.90;58.30
40323;DHT22;26030;51.164;17.100;2023-07-30T09:22:08;26.00;58.40
40323;DHT22;26030;51.164;17.100;2023-07-30T09:27:13;26.00;58.60
40323;DHT22;26030;51.164;17.100;2023-07-30T09:32:17;26.00;58.20
40323;DHT22;26030;51.164;17.100;2023-07-30T09:37:22;26.00;58.10
40323;DHT22;26030;51.164;17.100;2023-07-30T09:42:27;26.00;58.10
40323;DHT22;26030;51.164;17.100;2023-07-30T09:47:31;26.00;58.10
40323;DHT22;26030;51.164;17.100;2023-07-30T09:52:38;26.10;58.10
40323;DHT22;26030;51.164;17.100;2023-07-30T09:57:42;26.10;58.10
40323;DHT22;26030;51.164;17.100;2023-07-30T10:02:47;26.10;58.10
40323;DHT22;26030;51.164;17.100;2023-07-30T10:07:55;26.10;58.00
40323;DHT22;26030;51.164;17.100;2023-07-30T10:13:06;26.20;57.90
40323;DHT22;26030;51.164;17.100;2023-07-30T10:18:13;26.20;57.90
40323;DHT22;26030;51.164;17.100;2023-07-30T10:23:17;26.20;57.90
40323;DHT22;26030;51.164;17.100;2023-07-30T10:28:34;26.20;57.80
40323;DHT22;26030;51.164;17.100;2023-07-30T10:33:44;26.20;57.90
40323;DHT22;26030;51.164;17.100;2023-07-30T10:38:50;26.20;57.90
40323;DHT22;26030;51.164;17.100;2023-07-30T10:43:55;26.20;57.90
40323;DHT22;26030;51.164;17.100;2023-07-30T10:49:00;26.20;57.90
40323;DHT22;26030;51.164;17.100;2023-07-30T10:54:07;26.20;58.50
40323;DHT22;26030;51.164;17.100;2023-07-30T10:59:13;26.20;57.90
40323;DHT22;26030;51.164;17.100;2023-07-30T11:04:19;26.20;58.00
40323;DHT22;26030;51.164;17.100;2023-07-30T11:09:25;26.20;58.00
40323;DHT22;26030;51.164;17.100;2023-07-30T11:14:30;26.20;58.40
40323;DHT22;26030;51.164;17.100;2023-07-30T11:19:34;26.30;58.60
40323;DHT22;26030;51.164;17.100;2023-07-30T11:24:38;26.30;59.00
40323;DHT22;26030;51.164;17.100;2023-07-30T11:29:42;26.30;58.80
40323;DHT22;26030;51.164;17.100;2023-07-30T11:34:58;26.40;58.70
40323;DHT22;26030;51.164;17.100;2023-07-30T11:40:03;26.40;58.90
40323;DHT22;26030;51.164;17.100;2023-07-30T11:45:20;26.40;58.00
40323;DHT22;26030;51.164;17.100;2023-07-30T11:50:31;26.40;58.30
40323;DHT22;26030;51.164;17.100;2023-07-30T11:55:52;26.40;58.30
40323;DHT22;26030;51.164;17.100;2023-07-30T12:01:00;26.50;58.40
40323;DHT22;26030;51.164;17.100;2023-07-30T12:06:04;26.60;58.40
40323;DHT22;26030;51.164;17.100;2023-07-30T12:11:10;26.60;58.40
40323;DHT22;26030;51.164;17.100;2023-07-30T12:16:14;26.60;58.90
40323;DHT22;26030;51.164;17.100;2023-07-30T12:21:22;26.60;58.50
40323;DHT22;26030;51.164;17.100;2023-07-30T12:26:27;26.70;58.30
40323;DHT22;26030;51.164;17.100;2023-07-30T12:31:31;26.60;58.40
40323;DHT22;26030;51.164;17.100;2023-07-30T12:36:36;26.60;58.80
40323;DHT22;26030;51.164;17.100;2023-07-30T12:41:40;26.50;58.80
40323;DHT22;26030;51.164;17.100;2023-07-30T12:46:48;26.60;58.70
40323;DHT22;26030;51.164;17.100;2023-07-30T12:51:52;26.50;58.60
40323;DHT22;26030;51.164;17.100;2023-07-30T12:56:57;26.60;58.40
40323;DHT22;26030;51.164;17.100;2023-07-30T13:02:05;26.70;58.30
40323;DHT22;26030;51.164;17.100;2023-07-30T13:07:10;26.80;58.30
40323;DHT22;26030;51.164;17.100;2023-07-30T13:12:16;26.80;58.00
40323;DHT22;26030;51.164;17.100;2023-07-30T13:17:21;26.80;58.20
40323;DHT22;26030;51.164;17.100;2023-07-30T13:22:30;26.80;58.50
40323;DHT22;26030;51.164;17.100;2023-07-30T13:27:34;26.90;58.20
40323;DHT22;26030;51.164;17.100;2023-07-30T13:32:39;26.90;58.00
40323;DHT22;26030;51.164;17.100;2023-07-30T13:37:45;26.90;58.20
40323;DHT22;26030;51.164;17.100;2023-07-30T13:42:51;26.90;58.10
40323;DHT22;26030;51.164;17.100;2023-07-30T13:47:55;26.90;58.20
40323;DHT22;26030;51.164;17.100;2023-07-30T13:53:00;27.00;58.40
40323;DHT22;26030;51.164;17.100;2023-07-30T13:58:05;27.00;57.90
40323;DHT22;26030;51.164;17.100;2023-07-30T14:03:10;27.10;57.80
40323;DHT22;26030;51.164;17.100;2023-07-30T14:08:15;27.10;58.10
40323;DHT22;26030;51.164;17.100;2023-07-30T14:13:21;27.10;58.10
40323;DHT22;26030;51.164;17.100;2023-07-30T14:18:30;27.10;57.80
40323;DHT22;26030;51.164;17.100;2023-07-30T14:23:37;27.10;57.60
40323;DHT22;26030;51.164;17.100;2023-07-30T14:28:42;27.10;57.70
40323;DHT22;26030;51.164;17.100;2023-07-30T14:33:46;27.10;57.90
40323;DHT22;26030;51.164;17.100;2023-07-30T14:38:51;27.10;57.50
40323;DHT22;26030;51.164;17.100;2023-07-30T14:43:55;27.10;57.70
40323;DHT22;26030;51.164;17.100;2023-07-30T14:49:00;27.10;57.70
40323;DHT22;26030;51.164;17.100;2023-07-30T14:54:06;27.00;58.10
40323;DHT22;26030;51.164;17.100;2023-07-30T14:59:10;27.10;57.90
40323;DHT22;26030;51.164;17.100;2023-07-30T15:04:15;26.90;58.60
40323;DHT22;26030;51.164;17.100;2023-07-30T15:09:19;27.00;58.40
40323;DHT22;26030;51.164;17.100;2023-07-30T15:14:24;26.90;58.30
40323;DHT22;26030;51.164;17.100;2023-07-30T15:19:28;26.90;58.20
40323;DHT22;26030;51.164;17.100;2023-07-30T15:24:32;26.90;58.40
40323;DHT22;26030;51.164;17.100;2023-07-30T15:29:43;26.90;59.70
40323;DHT22;26030;51.164;17.100;2023-07-30T15:34:48;26.80;59.60
40323;DHT22;26030;51.164;17.100;2023-07-30T15:39:52;26.70;59.60
40323;DHT22;26030;51.164;17.100;2023-07-30T15:44:58;26.70;59.20
40323;DHT22;26030;51.164;17.100;2023-07-30T15:50:06;26.60;59.30
40323;DHT22;26030;51.164;17.100;2023-07-30T15:55:11;26.70;59.60
40323;DHT22;26030;51.164;17.100;2023-07-30T16:00:19;26.60;59.30
40323;DHT22;26030;51.164;17.100;2023-07-30T16:05:28;26.60;59.90
40323;DHT22;26030;51.164;17.100;2023-07-30T16:10:32;26.70;60.90
40323;DHT22;26030;51.164;17.100;2023-07-30T16:15:37;26.70;60.50
40323;DHT22;26030;51.164;17.100;2023-07-30T16:20:42;26.70;60.00
40323;DHT22;26030;51.164;17.100;2023-07-30T16:25:47;26.60;60.50
40323;DHT22;26030;51.164;17.100;2023-07-30T16:30:53;26.50;60.70
40323;DHT22;26030;51.164;17.100;2023-07-30T16:35:58;26.50;60.60
40323;DHT22;26030;51.164;17.100;2023-07-30T16:41:08;26.60;60.70
40323;DHT22;26030;51.164;17.100;2023-07-30T16:46:13;26.60;60.90
40323;DHT22;26030;51.164;17.100;2023-07-30T16:51:17;26.60;60.70
40323;DHT22;26030;51.164;17.100;2023-07-30T16:56:22;26.50;60.70
40323;DHT22;26030;51.164;17.100;2023-07-30T17:01:29;26.50;60.90
40323;DHT22;26030;51.164;17.100;2023-07-30T17:06:34;26.50;60.70
40323;DHT22;26030;51.164;17.100;2023-07-30T17:11:40;26.40;61.40
40323;DHT22;26030;51.164;17.100;2023-07-30T17:16:45;26.40;61.20
40323;DHT22;26030;51.164;17.100;2023-07-30T17:21:50;26.40;61.50
40323;DHT22;26030;51.164;17.100;2023-07-30T17:26:55;26.40;61.50
40323;DHT22;26030;51.164;17.100;2023-07-30T17:32:00;26.40;62.10
40323;DHT22;26030;51.164;17.100;2023-07-30T17:37:06;26.40;61.50
40323;DHT22;26030;51.164;17.100;2023-07-30T17:42:11;26.40;61.90
40323;DHT22;26030;51.164;17.100;2023-07-30T17:47:16;26.40;61.60
40323;DHT22;26030;51.164;17.100;2023-07-30T17:52:24;26.30;61.60
40323;DHT22;26030;51.164;17.100;2023-07-30T17:57:29;26.30;61.80
40323;DHT22;26030;51.164;17.100;2023-07-30T18:02:34;26.30;62.10
40323;DHT22;26030;51.164;17.100;2023-07-30T18:07:39;26.30;61.60
40323;DHT22;26030;51.164;17.100;2023-07-30T18:12:44;26.30;61.70
40323;DHT22;26030;51.164;17.100;2023-07-30T18:17:48;26.30;62.10
40323;DHT22;26030;51.164;17.100;2023-07-30T18:22:56;26.30;61.90
40323;DHT22;26030;51.164;17.100;2023-07-30T18:28:01;26.20;61.80
40323;DHT22;26030;51.164;17.100;2023-07-30T18:33:06;26.20;61.80
40323;DHT22;26030;51.164;17.100;2023-07-30T18:38:14;26.20;61.90
40323;DHT22;26030;51.164;17.100;2023-07-30T18:43:19;26.10;61.80
40323;DHT22;26030;51.164;17.100;2023-07-30T18:48:26;26.20;61.90
40323;DHT22;26030;51.164;17.100;2023-07-30T18:53:32;26.10;62.00
40323;DHT22;26030;51.164;17.100;2023-07-30T18:58:37;26.00;62.40
40323;DHT22;26030;51.164;17.100;2023-07-30T19:03:43;26.00;62.40
40323;DHT22;26030;51.164;17.100;2023-07-30T19:08:51;26.00;62.40
40323;DHT22;26030;51.164;17.100;2023-07-30T19:13:56;26.00;62.10
40323;DHT22;26030;51.164;17.100;2023-07-30T19:19:01;26.00;61.80
40323;DHT22;26030;51.164;17.100;2023-07-30T19:24:06;26.00;61.70
40323;DHT22;26030;51.164;17.100;2023-07-30T19:29:11;26.00;61.70
40323;DHT22;26030;51.164;17.100;2023-07-30T19:34:20;26.00;62.00
40323;DHT22;26030;51.164;17.100;2023-07-30T19:39:25;26.00;61.80
40323;DHT22;26030;51.164;17.100;2023-07-30T19:44:30;26.00;62.60
40323;DHT22;26030;51.164;17.100;2023-07-30T19:49:35;25.90;61.90
40323;DHT22;26030;51.164;17.100;2023-07-30T19:54:42;25.90;61.80
40323;DHT22;26030;51.164;17.100;2023-07-30T19:59:47;25.80;61.50
40323;DHT22;26030;51.164;17.100;2023-07-30T20:04:51;25.80;61.30
40323;DHT22;26030;51.164;17.100;2023-07-30T20:09:56;25.80;61.20
40323;DHT22;26030;51.164;17.100;2023-07-30T20:15:02;25.80;61.20
40323;DHT22;26030;51.164;17.100;2023-07-30T20:20:08;25.80;61.00
40323;DHT22;26030;51.164;17.100;2023-07-30T20:25:13;25.80;60.90
40323;DHT22;26030;51.164;17.100;2023-07-30T20:30:19;25.80;61.20
40323;DHT22;26030;51.164;17.100;2023-07-30T20:35:24;25.80;60.80
40323;DHT22;26030;51.164;17.100;2023-07-30T20:40:28;25.80;60.70
40323;DHT22;26030;51.164;17.100;2023-07-30T20:45:34;25.80;60.60
40323;DHT22;26030;51.164;17.100;2023-07-30T20:50:39;25.80;60.00
40323;DHT22;26030;51.164;17.100;2023-07-30T20:55:44;25.70;60.30
40323;DHT22;26030;51.164;17.100;2023-07-30T21:00:48;25.70;60.30
40323;DHT22;26030;51.164;17.100;2023-07-30T21:05:53;25.70;60.20
40323;DHT22;26030;51.164;17.100;2023-07-30T21:10:57;25.70;60.10
40323;DHT22;26030;51.164;17.100;2023-07-30T21:16:01;25.70;60.40
40323;DHT22;26030;51.164;17.100;2023-07-30T21:21:06;25.70;60.30
40323;DHT22;26030;51.164;17.100;2023-07-30T21:26:13;25.80;60.00
40323;DHT22;26030;51.164;17.100;2023-07-30T21:31:21;25.80;59.70
40323;DHT22;26030;51.164;17.100;2023-07-30T21:36:28;25.80;59.90
40323;DHT22;26030;51.164;17.100;2023-07-30T21:41:37;25.80;60.50
40323;DHT22;26030;51.164;17.100;2023-07-30T21:46:42;25.80;59.80
40323;DHT22;26030;51.164;17.100;2023-07-30T21:51:46;26.00;59.70
40323;DHT22;26030;51.164;17.100;2023-07-30T21:56:51;25.90;59.90
40323;DHT22;26030;51.164;17.100;2023-07-30T22:01:56;25.90;59.70
40323;DHT22;26030;51.164;17.100;2023-07-30T22:07:00;25.90;60.00
40323;DHT22;26030;51.164;17.100;2023-07-30T22:12:05;25.80;59.50
40323;DHT22;26030;51.164;17.100;2023-07-30T22:17:10;25.90;59.70
40323;DHT22;26030;51.164;17.100;2023-07-30T22:22:15;25.80;59.70
40323;DHT22;26030;51.164;17.100;2023-07-30T22:27:19;25.80;59.50
40323;DHT22;26030;51.164;17.100;2023-07-30T22:32:33;25.80;59.50
40323;DHT22;26030;51.164;17.100;2023-07-30T22:37:39;25.80;59.50
40323;DHT22;26030;51.164;17.100;2023-07-30T22:42:43;25.90;59.60
40323;DHT22;26030;51.164;17.100;2023-07-30T22:47:48;25.90;59.80
40323;DHT22;26030;51.164;17.100;2023-07-30T22:52:53;25.90;59.60
40323;DHT22;26030;51.164;17.100;2023-07-30T22:58:00;25.80;59.90
40323;DHT22;26030;51.164;17.100;2023-07-30T23:03:04;25.80;59.40
40323;DHT22;26030;51.164;17.100;2023-07-30T23:08:09;25.80;59.20
40323;DHT22;26030;51.164;17.100;2023-07-30T23:13:13;25.80;59.70
40323;DHT22;26030;51.164;17.100;2023-07-30T23:18:18;25.80;59.30
40323;DHT22;26030;51.164;17.100;2023-07-30T23:23:25;25.80;59.30
40323;DHT22;26030;51.164;17.100;2023-07-30T23:28:29;25.80;59.80
40323;DHT22;26030;51.164;17.100;2023-07-30T23:33:34;25.80;59.40
40323;DHT22;26030;51.164;17.100;2023-07-30T23:38:41;25.70;59.30
40323;DHT22;26030;51.164;17.100;2023-07-30T23:43:47;25.80;59.30
40323;DHT22;26030;51.164;17.100;2023-07-30T23:48:51;25.80;59.40
40323;DHT22;26030;51.164;17.100;2023-07-30T23:53:57;25.90;59.70
40323;DHT22;26030;51.164;17.100;2023-07-30T23:59:01;25.80;59.60
